Time;durP1;ratioP1;P1;durP2;ratioP2;P2;SDS_P1;SDS_P2;PMS_P1;PMS_P2;Temp;Humidity;BMP_temperature;BMP_pressure;BME280_temperature;BME280_humidity;BME280_pressure;Samples;Min_cycle;Max_cycle;Signal;HPM_P1;HPM_P2
2021/09/28 00:00:23;;;;;;;21.15;15.6;;;;;;;13.91;97.21094;95696.62;;;;
2021/09/28 00:01:23;;;;;;;21.15;15.6;;;;;;;13.91;97.21094;95696.62;;;;
2021/09/28 00:02:24;;;;;;;21.15;15.6;;;;;;;13.91;97.21094;95696.62;;;;
2021/09/28 00:03:24;;;;;;;21.15;15.6;;;;;;;13.91;97.21094;95696.62;;;;
2021/09/28 00:04:25;;;;;;;21.15;15.6;;;;;;;13.91;97.21094;95696.62;;;;
2021/09/28 00:05:25;;;;;;;21.15;15.6;;;;;;;13.91;97.21094;95696.62;;;;
2021/09/28 00:06:26;;;;;;;21.15;15.6;;;;;;;13.91;97.21094;95696.62;;;;
2021/09/28 00:07:26;;;;;;;22.15;17.75;;;;;;;13.89;97.79785;95701.89;;;;
2021/09/28 00:08:27;;;;;;;22.15;17.75;;;;;;;13.89;97.79785;95701.89;;;;
2021/09/28 00:09:28;;;;;;;22.15;17.75;;;;;;;13.89;97.79785;95701.89;;;;
2021/09/28 00:10:28;;;;;;;22.15;17.75;;;;;;;13.89;97.79785;95701.89;;;;
2021/09/28 00:11:29;;;;;;;22.15;17.75;;;;;;;13.89;97.79785;95701.89;;;;
2021/09/28 00:12:30;;;;;;;22.15;17.75;;;;;;;13.89;97.79785;95701.89;;;;
2021/09/28 00:13:31;;;;;;;22.15;17.75;;;;;;;13.89;97.79785;95701.89;;;;
2021/09/28 00:14:31;;;;;;;22.15;17.75;;;;;;;13.89;97.79785;95701.89;;;;
2021/09/28 00:15:32;;;;;;;22.15;17.75;;;;;;;13.89;97.79785;95701.89;;;;
2021/09/28 00:16:33;;;;;;;22.15;17.75;;;;;;;13.89;97.79785;95701.89;;;;
2021/09/28 00:17:33;;;;;;;22.15;17.75;;;;;;;13.89;97.79785;95701.89;;;;
2021/09/28 00:18:34;;;;;;;23.5;17.85;;;;;;;13.97;98.2002;95702.45;;;;
2021/09/28 00:19:34;;;;;;;23.5;17.85;;;;;;;13.97;98.2002;95702.45;;;;
2021/09/28 00:20:38;;;;;;;23.5;17.85;;;;;;;13.97;98.2002;95702.45;;;;
2021/09/28 00:21:38;;;;;;;23.5;17.85;;;;;;;13.97;98.2002;95702.45;;;;
2021/09/28 00:22:39;;;;;;;23.5;17.85;;;;;;;13.97;98.2002;95702.45;;;;
2021/09/28 00:23:40;;;;;;;23.5;17.85;;;;;;;13.97;98.2002;95702.45;;;;
2021/09/28 00:24:41;;;;;;;23.5;17.85;;;;;;;13.97;98.2002;95702.45;;;;
2021/09/28 00:25:41;;;;;;;23.5;17.85;;;;;;;13.97;98.2002;95702.45;;;;
2021/09/28 00:26:42;;;;;;;23.5;17.85;;;;;;;13.97;98.2002;95702.45;;;;
2021/09/28 00:27:42;;;;;;;23.5;17.85;;;;;;;13.97;98.2002;95702.45;;;;
2021/09/28 00:28:43;;;;;;;22.25;17.55;;;;;;;14.01;98.48926;95706.73;;;;
2021/09/28 00:29:44;;;;;;;22.25;17.55;;;;;;;14.01;98.48926;95706.73;;;;
2021/09/28 00:30:44;;;;;;;22.25;17.55;;;;;;;14.01;98.48926;95706.73;;;;
2021/09/28 00:31:45;;;;;;;22.25;17.55;;;;;;;14.01;98.48926;95706.73;;;;
2021/09/28 00:32:45;;;;;;;22.25;17.55;;;;;;;14.01;98.48926;95706.73;;;;
2021/09/28 00:33:46;;;;;;;22.25;17.55;;;;;;;14.01;98.48926;95706.73;;;;
2021/09/28 00:34:46;;;;;;;22.25;17.55;;;;;;;14.01;98.48926;95706.73;;;;
2021/09/28 00:35:47;;;;;;;22.25;17.55;;;;;;;14.01;98.48926;95706.73;;;;
2021/09/28 00:36:47;;;;;;;22.25;17.55;;;;;;;14.01;98.48926;95706.73;;;;
2021/09/28 00:37:48;;;;;;;22.25;17.55;;;;;;;14.01;98.48926;95706.73;;;;
2021/09/28 00:38:49;;;;;;;22.25;17.55;;;;;;;14.01;98.48926;95706.73;;;;
2021/09/28 00:39:49;;;;;;;25.05;18;;;;;;;13.91;99.00098;95705.19;;;;
2021/09/28 00:40:50;;;;;;;25.05;18;;;;;;;13.91;99.00098;95705.19;;;;
2021/09/28 00:41:50;;;;;;;25.05;18;;;;;;;13.91;99.00098;95705.19;;;;
2021/09/28 00:42:51;;;;;;;25.05;18;;;;;;;13.91;99.00098;95705.19;;;;
2021/09/28 00:43:53;;;;;;;25.05;18;;;;;;;13.91;99.00098;95705.19;;;;
2021/09/28 00:44:55;;;;;;;25.05;18;;;;;;;13.91;99.00098;95705.19;;;;
2021/09/28 00:45:55;;;;;;;25.05;18;;;;;;;13.91;99.00098;95705.19;;;;
2021/09/28 00:46:56;;;;;;;25.05;18;;;;;;;13.91;99.00098;95705.19;;;;
2021/09/28 00:47:57;;;;;;;25.05;18;;;;;;;13.91;99.00098;95705.19;;;;
2021/09/28 00:48:57;;;;;;;25.05;18;;;;;;;13.91;99.00098;95705.19;;;;
2021/09/28 00:49:58;;;;;;;24.3;18.55;;;;;;;13.79;99.77539;95710.82;;;;
2021/09/28 00:50:58;;;;;;;24.3;18.55;;;;;;;13.79;99.77539;95710.82;;;;
2021/09/28 00:51:59;;;;;;;24.3;18.55;;;;;;;13.79;99.77539;95710.82;;;;
2021/09/28 00:53:00;;;;;;;24.3;18.55;;;;;;;13.79;99.77539;95710.82;;;;
2021/09/28 00:54:00;;;;;;;24.3;18.55;;;;;;;13.79;99.77539;95710.82;;;;
2021/09/28 00:55:01;;;;;;;24.3;18.55;;;;;;;13.79;99.77539;95710.82;;;;
2021/09/28 00:56:03;;;;;;;24.3;18.55;;;;;;;13.79;99.77539;95710.82;;;;
2021/09/28 00:57:04;;;;;;;24.3;18.55;;;;;;;13.79;99.77539;95710.82;;;;
2021/09/28 00:58:08;;;;;;;24.3;18.55;;;;;;;13.79;99.77539;95710.82;;;;
2021/09/28 00:59:08;;;;;;;24.3;18.55;;;;;;;13.79;99.77539;95710.82;;;;
2021/09/28 01:00:09;;;;;;;24.3;18.55;;;;;;;13.79;99.77539;95710.82;;;;
2021/09/28 01:01:11;;;;;;;29.6;18.95;;;;;;;13.72;100;95722.37;;;;
2021/09/28 01:02:14;;;;;;;29.6;18.95;;;;;;;13.72;100;95722.37;;;;
2021/09/28 01:03:15;;;;;;;29.6;18.95;;;;;;;13.72;100;95722.37;;;;
2021/09/28 01:04:17;;;;;;;29.6;18.95;;;;;;;13.72;100;95722.37;;;;
2021/09/28 01:05:19;;;;;;;29.6;18.95;;;;;;;13.72;100;95722.37;;;;
2021/09/28 01:06:20;;;;;;;29.6;18.95;;;;;;;13.72;100;95722.37;;;;
2021/09/28 01:07:20;;;;;;;29.6;18.95;;;;;;;13.72;100;95722.37;;;;
2021/09/28 01:08:21;;;;;;;29.6;18.95;;;;;;;13.72;100;95722.37;;;;
2021/09/28 01:09:21;;;;;;;29.6;18.95;;;;;;;13.72;100;95722.37;;;;
2021/09/28 01:10:22;;;;;;;29.6;18.95;;;;;;;13.72;100;95722.37;;;;
2021/09/28 01:11:22;;;;;;;24.25;18.35;;;;;;;13.74;100;95718.87;;;;
2021/09/28 01:12:23;;;;;;;24.25;18.35;;;;;;;13.74;100;95718.87;;;;
2021/09/28 01:13:23;;;;;;;24.25;18.35;;;;;;;13.74;100;95718.87;;;;
2021/09/28 01:14:25;;;;;;;24.25;18.35;;;;;;;13.74;100;95718.87;;;;
2021/09/28 01:15:25;;;;;;;24.25;18.35;;;;;;;13.74;100;95718.87;;;;
2021/09/28 01:16:26;;;;;;;24.25;18.35;;;;;;;13.74;100;95718.87;;;;
2021/09/28 01:17:27;;;;;;;24.25;18.35;;;;;;;13.74;100;95718.87;;;;
2021/09/28 01:18:27;;;;;;;24.25;18.35;;;;;;;13.74;100;95718.87;;;;
2021/09/28 01:19:30;;;;;;;24.25;18.35;;;;;;;13.74;100;95718.87;;;;
2021/09/28 01:20:30;;;;;;;24.25;18.35;;;;;;;13.74;100;95718.87;;;;
2021/09/28 01:21:36;;;;;;;21.95;18;;;;;;;13.88;100;95721.45;;;;
2021/09/28 01:22:37;;;;;;;21.95;18;;;;;;;13.88;100;95721.45;;;;
2021/09/28 01:23:37;;;;;;;21.95;18;;;;;;;13.88;100;95721.45;;;;
2021/09/28 01:24:39;;;;;;;21.95;18;;;;;;;13.88;100;95721.45;;;;
2021/09/28 01:25:41;;;;;;;21.95;18;;;;;;;13.88;100;95721.45;;;;
2021/09/28 01:26:42;;;;;;;21.95;18;;;;;;;13.88;100;95721.45;;;;
2021/09/28 01:27:42;;;;;;;21.95;18;;;;;;;13.88;100;95721.45;;;;
2021/09/28 01:28:43;;;;;;;21.95;18;;;;;;;13.88;100;95721.45;;;;
2021/09/28 01:29:44;;;;;;;21.95;18;;;;;;;13.88;100;95721.45;;;;
2021/09/28 01:30:44;;;;;;;21.95;18;;;;;;;13.88;100;95721.45;;;;
2021/09/28 01:31:45;;;;;;;21.95;18;;;;;;;13.88;100;95721.45;;;;
2021/09/28 01:32:47;;;;;;;23.45;19.35;;;;;;;14.09;100;95718.94;;;;
2021/09/28 01:33:47;;;;;;;23.45;19.35;;;;;;;14.09;100;95718.94;;;;
2021/09/28 01:34:48;;;;;;;23.45;19.35;;;;;;;14.09;100;95718.94;;;;
2021/09/28 01:35:48;;;;;;;23.45;19.35;;;;;;;14.09;100;95718.94;;;;
2021/09/28 01:36:49;;;;;;;23.45;19.35;;;;;;;14.09;100;95718.94;;;;
2021/09/28 01:37:50;;;;;;;23.45;19.35;;;;;;;14.09;100;95718.94;;;;
2021/09/28 01:38:50;;;;;;;23.45;19.35;;;;;;;14.09;100;95718.94;;;;
2021/09/28 01:39:51;;;;;;;23.45;19.35;;;;;;;14.09;100;95718.94;;;;
2021/09/28 01:40:51;;;;;;;23.45;19.35;;;;;;;14.09;100;95718.94;;;;
2021/09/28 01:41:52;;;;;;;23.45;19.35;;;;;;;14.09;100;95718.94;;;;
2021/09/28 01:42:53;;;;;;;23.45;19.35;;;;;;;14.09;100;95718.94;;;;
2021/09/28 01:43:53;;;;;;;20.15;17.65;;;;;;;14.36;100;95722.67;;;;
2021/09/28 01:45:04;;;;;;;20.15;17.65;;;;;;;14.36;100;95722.67;;;;
2021/09/28 01:46:05;;;;;;;20.15;17.65;;;;;;;14.36;100;95722.67;;;;
2021/09/28 01:47:06;;;;;;;20.15;17.65;;;;;;;14.36;100;95722.67;;;;
2021/09/28 01:48:07;;;;;;;20.15;17.65;;;;;;;14.36;100;95722.67;;;;
2021/09/28 01:49:07;;;;;;;20.15;17.65;;;;;;;14.36;100;95722.67;;;;
2021/09/28 01:50:10;;;;;;;20.15;17.65;;;;;;;14.36;100;95722.67;;;;
2021/09/28 01:51:11;;;;;;;20.15;17.65;;;;;;;14.36;100;95722.67;;;;
2021/09/28 01:52:11;;;;;;;20.15;17.65;;;;;;;14.36;100;95722.67;;;;
2021/09/28 01:53:12;;;;;;;20.15;17.65;;;;;;;14.36;100;95722.67;;;;
2021/09/28 01:54:12;;;;;;;17.95;15.95;;;;;;;14.58;100;95716.87;;;;
2021/09/28 01:55:13;;;;;;;17.95;15.95;;;;;;;14.58;100;95716.87;;;;
2021/09/28 01:56:14;;;;;;;17.95;15.95;;;;;;;14.58;100;95716.87;;;;
2021/09/28 01:57:17;;;;;;;17.95;15.95;;;;;;;14.58;100;95716.87;;;;
2021/09/28 01:58:17;;;;;;;17.95;15.95;;;;;;;14.58;100;95716.87;;;;
2021/09/28 01:59:18;;;;;;;17.95;15.95;;;;;;;14.58;100;95716.87;;;;
2021/09/28 02:00:20;;;;;;;17.95;15.95;;;;;;;14.58;100;95716.87;;;;
2021/09/28 02:01:20;;;;;;;17.95;15.95;;;;;;;14.58;100;95716.87;;;;
2021/09/28 02:02:21;;;;;;;17.95;15.95;;;;;;;14.58;100;95716.87;;;;
2021/09/28 02:03:22;;;;;;;17.95;15.95;;;;;;;14.58;100;95716.87;;;;
2021/09/28 02:04:22;;;;;;;17.05;15.1;;;;;;;14.6;100;95724.13;;;;
2021/09/28 02:05:23;;;;;;;17.05;15.1;;;;;;;14.6;100;95724.13;;;;
2021/09/28 02:06:23;;;;;;;17.05;15.1;;;;;;;14.6;100;95724.13;;;;
2021/09/28 02:07:24;;;;;;;17.05;15.1;;;;;;;14.6;100;95724.13;;;;
2021/09/28 02:08:24;;;;;;;17.05;15.1;;;;;;;14.6;100;95724.13;;;;
2021/09/28 02:09:25;;;;;;;17.05;15.1;;;;;;;14.6;100;95724.13;;;;
2021/09/28 02:10:25;;;;;;;17.05;15.1;;;;;;;14.6;100;95724.13;;;;
2021/09/28 02:11:26;;;;;;;17.05;15.1;;;;;;;14.6;100;95724.13;;;;
2021/09/28 02:12:26;;;;;;;17.05;15.1;;;;;;;14.6;100;95724.13;;;;
2021/09/28 02:13:27;;;;;;;17.05;15.1;;;;;;;14.6;100;95724.13;;;;
2021/09/28 02:14:28;;;;;;;17.05;15.1;;;;;;;14.6;100;95724.13;;;;
2021/09/28 02:15:29;;;;;;;18.05;14;;;;;;;14.52;100;95723.29;;;;
2021/09/28 02:16:29;;;;;;;18.05;14;;;;;;;14.52;100;95723.29;;;;
2021/09/28 02:17:30;;;;;;;18.05;14;;;;;;;14.52;100;95723.29;;;;
2021/09/28 02:18:30;;;;;;;18.05;14;;;;;;;14.52;100;95723.29;;;;
2021/09/28 02:19:31;;;;;;;18.05;14;;;;;;;14.52;100;95723.29;;;;
2021/09/28 02:20:32;;;;;;;18.05;14;;;;;;;14.52;100;95723.29;;;;
2021/09/28 02:21:32;;;;;;;18.05;14;;;;;;;14.52;100;95723.29;;;;
2021/09/28 02:22:33;;;;;;;18.05;14;;;;;;;14.52;100;95723.29;;;;
2021/09/28 02:23:34;;;;;;;18.05;14;;;;;;;14.52;100;95723.29;;;;
2021/09/28 02:24:34;;;;;;;18.05;14;;;;;;;14.52;100;95723.29;;;;
2021/09/28 02:25:35;;;;;;;18.05;14;;;;;;;14.52;100;95723.29;;;;
2021/09/28 02:26:35;;;;;;;16.85;14.85;;;;;;;14.5;100;95719.89;;;;
2021/09/28 02:27:36;;;;;;;16.85;14.85;;;;;;;14.5;100;95719.89;;;;
2021/09/28 02:28:36;;;;;;;16.85;14.85;;;;;;;14.5;100;95719.89;;;;
2021/09/28 02:29:37;;;;;;;16.85;14.85;;;;;;;14.5;100;95719.89;;;;
2021/09/28 02:30:37;;;;;;;16.85;14.85;;;;;;;14.5;100;95719.89;;;;
2021/09/28 02:31:38;;;;;;;16.85;14.85;;;;;;;14.5;100;95719.89;;;;
2021/09/28 02:32:39;;;;;;;16.85;14.85;;;;;;;14.5;100;95719.89;;;;
2021/09/28 02:33:40;;;;;;;16.85;14.85;;;;;;;14.5;100;95719.89;;;;
2021/09/28 02:34:40;;;;;;;16.85;14.85;;;;;;;14.5;100;95719.89;;;;
2021/09/28 02:35:41;;;;;;;16.85;14.85;;;;;;;14.5;100;95719.89;;;;
2021/09/28 02:36:41;;;;;;;16.45;13.85;;;;;;;14.62;100;95715.3;;;;
2021/09/28 02:37:42;;;;;;;16.45;13.85;;;;;;;14.62;100;95715.3;;;;
2021/09/28 02:38:43;;;;;;;16.45;13.85;;;;;;;14.62;100;95715.3;;;;
2021/09/28 02:39:43;;;;;;;16.45;13.85;;;;;;;14.62;100;95715.3;;;;
2021/09/28 02:40:44;;;;;;;16.45;13.85;;;;;;;14.62;100;95715.3;;;;
2021/09/28 02:41:45;;;;;;;16.45;13.85;;;;;;;14.62;100;95715.3;;;;
2021/09/28 02:42:45;;;;;;;16.45;13.85;;;;;;;14.62;100;95715.3;;;;
2021/09/28 02:43:46;;;;;;;16.45;13.85;;;;;;;14.62;100;95715.3;;;;
2021/09/28 02:44:48;;;;;;;16.45;13.85;;;;;;;14.62;100;95715.3;;;;
2021/09/28 02:45:50;;;;;;;16.45;13.85;;;;;;;14.62;100;95715.3;;;;
2021/09/28 02:46:51;;;;;;;16.45;13.85;;;;;;;14.62;100;95715.3;;;;
2021/09/28 02:47:51;;;;;;;17.1;13.7;;;;;;;14.64;100;95715.88;;;;
2021/09/28 02:48:52;;;;;;;17.1;13.7;;;;;;;14.64;100;95715.88;;;;
2021/09/28 02:49:52;;;;;;;17.1;13.7;;;;;;;14.64;100;95715.88;;;;
2021/09/28 02:50:54;;;;;;;17.1;13.7;;;;;;;14.64;100;95715.88;;;;
2021/09/28 02:51:55;;;;;;;17.1;13.7;;;;;;;14.64;100;95715.88;;;;
2021/09/28 02:52:55;;;;;;;17.1;13.7;;;;;;;14.64;100;95715.88;;;;
2021/09/28 02:53:56;;;;;;;17.1;13.7;;;;;;;14.64;100;95715.88;;;;
2021/09/28 02:54:56;;;;;;;17.1;13.7;;;;;;;14.64;100;95715.88;;;;
2021/09/28 02:55:57;;;;;;;17.1;13.7;;;;;;;14.64;100;95715.88;;;;
2021/09/28 02:56:57;;;;;;;17.1;13.7;;;;;;;14.64;100;95715.88;;;;
2021/09/28 02:57:58;;;;;;;18.7;14.05;;;;;;;14.63;100;95721.84;;;;
2021/09/28 02:58:58;;;;;;;18.7;14.05;;;;;;;14.63;100;95721.84;;;;
2021/09/28 02:59:59;;;;;;;18.7;14.05;;;;;;;14.63;100;95721.84;;;;
2021/09/28 03:00:59;;;;;;;18.7;14.05;;;;;;;14.63;100;95721.84;;;;
2021/09/28 03:02:00;;;;;;;18.7;14.05;;;;;;;14.63;100;95721.84;;;;
2021/09/28 03:03:00;;;;;;;18.7;14.05;;;;;;;14.63;100;95721.84;;;;
2021/09/28 03:04:01;;;;;;;18.7;14.05;;;;;;;14.63;100;95721.84;;;;
2021/09/28 03:05:02;;;;;;;18.7;14.05;;;;;;;14.63;100;95721.84;;;;
2021/09/28 03:06:03;;;;;;;18.7;14.05;;;;;;;14.63;100;95721.84;;;;
2021/09/28 03:07:05;;;;;;;18.7;14.05;;;;;;;14.63;100;95721.84;;;;
2021/09/28 03:08:05;;;;;;;18.7;14.05;;;;;;;14.63;100;95721.84;;;;
2021/09/28 03:09:06;;;;;;;15.3;13.25;;;;;;;14.61;100;95723.56;;;;
2021/09/28 03:10:06;;;;;;;15.3;13.25;;;;;;;14.61;100;95723.56;;;;
2021/09/28 03:11:08;;;;;;;15.3;13.25;;;;;;;14.61;100;95723.56;;;;
2021/09/28 03:12:09;;;;;;;15.3;13.25;;;;;;;14.61;100;95723.56;;;;
2021/09/28 03:13:10;;;;;;;15.3;13.25;;;;;;;14.61;100;95723.56;;;;
2021/09/28 03:14:11;;;;;;;15.3;13.25;;;;;;;14.61;100;95723.56;;;;
2021/09/28 03:15:11;;;;;;;15.3;13.25;;;;;;;14.61;100;95723.56;;;;
2021/09/28 03:16:12;;;;;;;15.3;13.25;;;;;;;14.61;100;95723.56;;;;
2021/09/28 03:17:13;;;;;;;15.3;13.25;;;;;;;14.61;100;95723.56;;;;
2021/09/28 03:18:13;;;;;;;15.3;13.25;;;;;;;14.61;100;95723.56;;;;
2021/09/28 03:19:13;;;;;;;14.9;12.75;;;;;;;14.52;100;95726.84;;;;
2021/09/28 03:20:14;;;;;;;14.9;12.75;;;;;;;14.52;100;95726.84;;;;
2021/09/28 03:21:15;;;;;;;14.9;12.75;;;;;;;14.52;100;95726.84;;;;
2021/09/28 03:22:17;;;;;;;14.9;12.75;;;;;;;14.52;100;95726.84;;;;
2021/09/28 03:23:17;;;;;;;14.9;12.75;;;;;;;14.52;100;95726.84;;;;
2021/09/28 03:24:18;;;;;;;14.9;12.75;;;;;;;14.52;100;95726.84;;;;
2021/09/28 03:25:19;;;;;;;14.9;12.75;;;;;;;14.52;100;95726.84;;;;
2021/09/28 03:26:20;;;;;;;14.9;12.75;;;;;;;14.52;100;95726.84;;;;
2021/09/28 03:27:20;;;;;;;14.9;12.75;;;;;;;14.52;100;95726.84;;;;
2021/09/28 03:28:21;;;;;;;14.9;12.75;;;;;;;14.52;100;95726.84;;;;
2021/09/28 03:29:21;;;;;;;14.9;12.75;;;;;;;14.52;100;95726.84;;;;
2021/09/28 03:30:22;;;;;;;16.25;12.7;;;;;;;14.49;100;95729.13;;;;
2021/09/28 03:31:22;;;;;;;16.25;12.7;;;;;;;14.49;100;95729.13;;;;
2021/09/28 03:32:23;;;;;;;16.25;12.7;;;;;;;14.49;100;95729.13;;;;
2021/09/28 03:33:23;;;;;;;16.25;12.7;;;;;;;14.49;100;95729.13;;;;
2021/09/28 03:34:24;;;;;;;16.25;12.7;;;;;;;14.49;100;95729.13;;;;
2021/09/28 03:35:24;;;;;;;16.25;12.7;;;;;;;14.49;100;95729.13;;;;
2021/09/28 03:36:25;;;;;;;16.25;12.7;;;;;;;14.49;100;95729.13;;;;
2021/09/28 03:37:26;;;;;;;16.25;12.7;;;;;;;14.49;100;95729.13;;;;
2021/09/28 03:38:26;;;;;;;16.25;12.7;;;;;;;14.49;100;95729.13;;;;
2021/09/28 03:39:27;;;;;;;16.25;12.7;;;;;;;14.49;100;95729.13;;;;
2021/09/28 03:40:29;;;;;;;18.45;12.7;;;;;;;14.56;100;95733.84;;;;
2021/09/28 03:41:30;;;;;;;18.45;12.7;;;;;;;14.56;100;95733.84;;;;
2021/09/28 03:42:30;;;;;;;18.45;12.7;;;;;;;14.56;100;95733.84;;;;
2021/09/28 03:43:31;;;;;;;18.45;12.7;;;;;;;14.56;100;95733.84;;;;
2021/09/28 03:44:32;;;;;;;18.45;12.7;;;;;;;14.56;100;95733.84;;;;
2021/09/28 03:45:32;;;;;;;18.45;12.7;;;;;;;14.56;100;95733.84;;;;
2021/09/28 03:46:33;;;;;;;18.45;12.7;;;;;;;14.56;100;95733.84;;;;
2021/09/28 03:47:33;;;;;;;18.45;12.7;;;;;;;14.56;100;95733.84;;;;
2021/09/28 03:48:34;;;;;;;18.45;12.7;;;;;;;14.56;100;95733.84;;;;
2021/09/28 03:49:35;;;;;;;18.45;12.7;;;;;;;14.56;100;95733.84;;;;
2021/09/28 03:50:37;;;;;;;18.45;12.7;;;;;;;14.56;100;95733.84;;;;
2021/09/28 03:51:38;;;;;;;16.9;13;;;;;;;14.7;100;95741.52;;;;
2021/09/28 03:52:38;;;;;;;16.9;13;;;;;;;14.7;100;95741.52;;;;
2021/09/28 03:53:39;;;;;;;16.9;13;;;;;;;14.7;100;95741.52;;;;
2021/09/28 03:54:39;;;;;;;16.9;13;;;;;;;14.7;100;95741.52;;;;
2021/09/28 03:55:40;;;;;;;16.9;13;;;;;;;14.7;100;95741.52;;;;
2021/09/28 03:56:41;;;;;;;16.9;13;;;;;;;14.7;100;95741.52;;;;
2021/09/28 03:57:41;;;;;;;16.9;13;;;;;;;14.7;100;95741.52;;;;
2021/09/28 03:58:42;;;;;;;16.9;13;;;;;;;14.7;100;95741.52;;;;
2021/09/28 03:59:42;;;;;;;16.9;13;;;;;;;14.7;100;95741.52;;;;
2021/09/28 04:00:43;;;;;;;16.9;13;;;;;;;14.7;100;95741.52;;;;
2021/09/28 04:01:44;;;;;;;15.95;12.7;;;;;;;14.56;100;95769.28;;;;
2021/09/28 04:02:44;;;;;;;15.95;12.7;;;;;;;14.56;100;95769.28;;;;
2021/09/28 04:03:45;;;;;;;15.95;12.7;;;;;;;14.56;100;95769.28;;;;
2021/09/28 04:04:46;;;;;;;15.95;12.7;;;;;;;14.56;100;95769.28;;;;
2021/09/28 04:05:46;;;;;;;15.95;12.7;;;;;;;14.56;100;95769.28;;;;
2021/09/28 04:06:47;;;;;;;15.95;12.7;;;;;;;14.56;100;95769.28;;;;
2021/09/28 04:07:47;;;;;;;15.95;12.7;;;;;;;14.56;100;95769.28;;;;
2021/09/28 04:08:47;;;;;;;15.95;12.7;;;;;;;14.56;100;95769.28;;;;
2021/09/28 04:09:48;;;;;;;15.95;12.7;;;;;;;14.56;100;95769.28;;;;
2021/09/28 04:10:48;;;;;;;15.95;12.7;;;;;;;14.56;100;95769.28;;;;
2021/09/28 04:11:49;;;;;;;15.95;12.7;;;;;;;14.56;100;95769.28;;;;
2021/09/28 04:12:49;;;;;;;19;16;;;;;;;14.56;100;95781.4;;;;
2021/09/28 04:13:50;;;;;;;19;16;;;;;;;14.56;100;95781.4;;;;
2021/09/28 04:14:50;;;;;;;19;16;;;;;;;14.56;100;95781.4;;;;
2021/09/28 04:15:52;;;;;;;19;16;;;;;;;14.56;100;95781.4;;;;
2021/09/28 04:16:53;;;;;;;19;16;;;;;;;14.56;100;95781.4;;;;
2021/09/28 04:17:53;;;;;;;19;16;;;;;;;14.56;100;95781.4;;;;
2021/09/28 04:18:54;;;;;;;19;16;;;;;;;14.56;100;95781.4;;;;
2021/09/28 04:19:54;;;;;;;19;16;;;;;;;14.56;100;95781.4;;;;
2021/09/28 04:20:57;;;;;;;19;16;;;;;;;14.56;100;95781.4;;;;
2021/09/28 04:21:58;;;;;;;19;16;;;;;;;14.56;100;95781.4;;;;
2021/09/28 04:22:58;;;;;;;23.05;18.2;;;;;;;14.69;100;95795.19;;;;
2021/09/28 04:23:59;;;;;;;23.05;18.2;;;;;;;14.69;100;95795.19;;;;
2021/09/28 04:25:00;;;;;;;23.05;18.2;;;;;;;14.69;100;95795.19;;;;
2021/09/28 04:26:03;;;;;;;23.05;18.2;;;;;;;14.69;100;95795.19;;;;
2021/09/28 04:27:03;;;;;;;23.05;18.2;;;;;;;14.69;100;95795.19;;;;
2021/09/28 04:28:05;;;;;;;23.05;18.2;;;;;;;14.69;100;95795.19;;;;
2021/09/28 04:29:07;;;;;;;23.05;18.2;;;;;;;14.69;100;95795.19;;;;
2021/09/28 04:30:08;;;;;;;23.05;18.2;;;;;;;14.69;100;95795.19;;;;
2021/09/28 04:31:12;;;;;;;23.05;18.2;;;;;;;14.69;100;95795.19;;;;
2021/09/28 04:32:12;;;;;;;23.05;18.2;;;;;;;14.69;100;95795.19;;;;
2021/09/28 04:33:13;;;;;;;23.05;18.2;;;;;;;14.69;100;95795.19;;;;
2021/09/28 04:34:13;;;;;;;25.7;20.25;;;;;;;14.89;100;95795.9;;;;
2021/09/28 04:35:14;;;;;;;25.7;20.25;;;;;;;14.89;100;95795.9;;;;
2021/09/28 04:36:15;;;;;;;25.7;20.25;;;;;;;14.89;100;95795.9;;;;
2021/09/28 04:37:15;;;;;;;25.7;20.25;;;;;;;14.89;100;95795.9;;;;
2021/09/28 04:38:16;;;;;;;25.7;20.25;;;;;;;14.89;100;95795.9;;;;
2021/09/28 04:39:16;;;;;;;25.7;20.25;;;;;;;14.89;100;95795.9;;;;
2021/09/28 04:40:17;;;;;;;25.7;20.25;;;;;;;14.89;100;95795.9;;;;
2021/09/28 04:41:17;;;;;;;25.7;20.25;;;;;;;14.89;100;95795.9;;;;
2021/09/28 04:42:18;;;;;;;25.7;20.25;;;;;;;14.89;100;95795.9;;;;
2021/09/28 04:43:18;;;;;;;25.7;20.25;;;;;;;14.89;100;95795.9;;;;
2021/09/28 04:44:19;;;;;;;23.45;18.5;;;;;;;14.99;100;95809.22;;;;
2021/09/28 04:45:19;;;;;;;23.45;18.5;;;;;;;14.99;100;95809.22;;;;
2021/09/28 04:46:20;;;;;;;23.45;18.5;;;;;;;14.99;100;95809.22;;;;
2021/09/28 04:47:20;;;;;;;23.45;18.5;;;;;;;14.99;100;95809.22;;;;
2021/09/28 04:48:21;;;;;;;23.45;18.5;;;;;;;14.99;100;95809.22;;;;
2021/09/28 04:49:21;;;;;;;23.45;18.5;;;;;;;14.99;100;95809.22;;;;
2021/09/28 04:50:22;;;;;;;23.45;18.5;;;;;;;14.99;100;95809.22;;;;
2021/09/28 04:51:23;;;;;;;23.45;18.5;;;;;;;14.99;100;95809.22;;;;
2021/09/28 04:52:23;;;;;;;23.45;18.5;;;;;;;14.99;100;95809.22;;;;
2021/09/28 04:53:24;;;;;;;23.45;18.5;;;;;;;14.99;100;95809.22;;;;
2021/09/28 04:54:25;;;;;;;23.45;18.5;;;;;;;14.99;100;95809.22;;;;
2021/09/28 04:55:25;;;;;;;23.2;17.4;;;;;;;15.11;100;95823.14;;;;
2021/09/28 04:56:25;;;;;;;23.2;17.4;;;;;;;15.11;100;95823.14;;;;
2021/09/28 04:57:26;;;;;;;23.2;17.4;;;;;;;15.11;100;95823.14;;;;
2021/09/28 04:58:27;;;;;;;23.2;17.4;;;;;;;15.11;100;95823.14;;;;
2021/09/28 04:59:27;;;;;;;23.2;17.4;;;;;;;15.11;100;95823.14;;;;
2021/09/28 05:00:28;;;;;;;23.2;17.4;;;;;;;15.11;100;95823.14;;;;
2021/09/28 05:01:28;;;;;;;23.2;17.4;;;;;;;15.11;100;95823.14;;;;
2021/09/28 05:02:29;;;;;;;23.2;17.4;;;;;;;15.11;100;95823.14;;;;
2021/09/28 05:03:29;;;;;;;23.2;17.4;;;;;;;15.11;100;95823.14;;;;
2021/09/28 05:04:30;;;;;;;23.2;17.4;;;;;;;15.11;100;95823.14;;;;
2021/09/28 05:05:30;;;;;;;23.2;17.4;;;;;;;15.11;100;95823.14;;;;
2021/09/28 05:06:31;;;;;;;17.8;15;;;;;;;15.13;100;95825.87;;;;
2021/09/28 05:07:32;;;;;;;17.8;15;;;;;;;15.13;100;95825.87;;;;
2021/09/28 05:08:33;;;;;;;17.8;15;;;;;;;15.13;100;95825.87;;;;
2021/09/28 05:09:34;;;;;;;17.8;15;;;;;;;15.13;100;95825.87;;;;
2021/09/28 05:10:34;;;;;;;17.8;15;;;;;;;15.13;100;95825.87;;;;
2021/09/28 05:11:35;;;;;;;17.8;15;;;;;;;15.13;100;95825.87;;;;
2021/09/28 05:12:36;;;;;;;17.8;15;;;;;;;15.13;100;95825.87;;;;
2021/09/28 05:13:36;;;;;;;17.8;15;;;;;;;15.13;100;95825.87;;;;
2021/09/28 05:14:37;;;;;;;17.8;15;;;;;;;15.13;100;95825.87;;;;
2021/09/28 05:15:37;;;;;;;17.8;15;;;;;;;15.13;100;95825.87;;;;
2021/09/28 05:16:38;;;;;;;15.9;13.45;;;;;;;15.2;100;95818.36;;;;
2021/09/28 05:17:39;;;;;;;15.9;13.45;;;;;;;15.2;100;95818.36;;;;
2021/09/28 05:18:39;;;;;;;15.9;13.45;;;;;;;15.2;100;95818.36;;;;
2021/09/28 05:19:40;;;;;;;15.9;13.45;;;;;;;15.2;100;95818.36;;;;
2021/09/28 05:20:40;;;;;;;15.9;13.45;;;;;;;15.2;100;95818.36;;;;
2021/09/28 05:21:41;;;;;;;15.9;13.45;;;;;;;15.2;100;95818.36;;;;
2021/09/28 05:22:41;;;;;;;15.9;13.45;;;;;;;15.2;100;95818.36;;;;
2021/09/28 05:23:46;;;;;;;15.9;13.45;;;;;;;15.2;100;95818.36;;;;
2021/09/28 05:24:46;;;;;;;15.9;13.45;;;;;;;15.2;100;95818.36;;;;
2021/09/28 05:25:46;;;;;;;15.9;13.45;;;;;;;15.2;100;95818.36;;;;
2021/09/28 05:26:47;;;;;;;15.9;13.45;;;;;;;15.2;100;95818.36;;;;
2021/09/28 05:27:48;;;;;;;15.9;13.15;;;;;;;15.22;100;95827.62;;;;
2021/09/28 05:28:48;;;;;;;15.9;13.15;;;;;;;15.22;100;95827.62;;;;
2021/09/28 05:29:48;;;;;;;15.9;13.15;;;;;;;15.22;100;95827.62;;;;
2021/09/28 05:30:49;;;;;;;15.9;13.15;;;;;;;15.22;100;95827.62;;;;
2021/09/28 05:31:50;;;;;;;15.9;13.15;;;;;;;15.22;100;95827.62;;;;
2021/09/28 05:32:50;;;;;;;15.9;13.15;;;;;;;15.22;100;95827.62;;;;
2021/09/28 05:33:51;;;;;;;15.9;13.15;;;;;;;15.22;100;95827.62;;;;
2021/09/28 05:34:51;;;;;;;15.9;13.15;;;;;;;15.22;100;95827.62;;;;
2021/09/28 05:35:55;;;;;;;15.9;13.15;;;;;;;15.22;100;95827.62;;;;
2021/09/28 05:36:55;;;;;;;15.9;13.15;;;;;;;15.22;100;95827.62;;;;
2021/09/28 05:37:56;;;;;;;22.05;14.6;;;;;;;15.22;100;95837.14;;;;
2021/09/28 05:38:56;;;;;;;22.05;14.6;;;;;;;15.22;100;95837.14;;;;
2021/09/28 05:39:57;;;;;;;22.05;14.6;;;;;;;15.22;100;95837.14;;;;
2021/09/28 05:40:58;;;;;;;22.05;14.6;;;;;;;15.22;100;95837.14;;;;
2021/09/28 05:41:59;;;;;;;22.05;14.6;;;;;;;15.22;100;95837.14;;;;
2021/09/28 05:42:59;;;;;;;22.05;14.6;;;;;;;15.22;100;95837.14;;;;
2021/09/28 05:44:00;;;;;;;22.05;14.6;;;;;;;15.22;100;95837.14;;;;
2021/09/28 05:45:01;;;;;;;22.05;14.6;;;;;;;15.22;100;95837.14;;;;
2021/09/28 05:46:02;;;;;;;22.05;14.6;;;;;;;15.22;100;95837.14;;;;
2021/09/28 05:47:02;;;;;;;22.05;14.6;;;;;;;15.22;100;95837.14;;;;
2021/09/28 05:48:04;;;;;;;22.05;14.6;;;;;;;15.22;100;95837.14;;;;
2021/09/28 05:49:05;;;;;;;15.6;12.95;;;;;;;15.22;100;95840.42;;;;
2021/09/28 05:50:05;;;;;;;15.6;12.95;;;;;;;15.22;100;95840.42;;;;
2021/09/28 05:51:07;;;;;;;15.6;12.95;;;;;;;15.22;100;95840.42;;;;
2021/09/28 05:52:15;;;;;;;15.6;12.95;;;;;;;15.22;100;95840.42;;;;
2021/09/28 05:53:16;;;;;;;15.6;12.95;;;;;;;15.22;100;95840.42;;;;
2021/09/28 05:54:18;;;;;;;15.6;12.95;;;;;;;15.22;100;95840.42;;;;
2021/09/28 05:55:20;;;;;;;15.6;12.95;;;;;;;15.22;100;95840.42;;;;
2021/09/28 05:56:21;;;;;;;15.6;12.95;;;;;;;15.22;100;95840.42;;;;
2021/09/28 05:57:22;;;;;;;15.6;12.95;;;;;;;15.22;100;95840.42;;;;
2021/09/28 05:58:23;;;;;;;15.6;12.95;;;;;;;15.22;100;95840.42;;;;
2021/09/28 05:59:23;;;;;;;13.75;10.75;;;;;;;15.21;100;95856.86;;;;
2021/09/28 06:00:24;;;;;;;13.75;10.75;;;;;;;15.21;100;95856.86;;;;
2021/09/28 06:01:24;;;;;;;13.75;10.75;;;;;;;15.21;100;95856.86;;;;
2021/09/28 06:02:25;;;;;;;13.75;10.75;;;;;;;15.21;100;95856.86;;;;